Time;durP1;ratioP1;P1;durP2;ratioP2;P2;SDS_P1;SDS_P2;PMS_P1;PMS_P2;Temp;Humidity;BMP_temperature;BMP_pressure;BME280_temperature;BME280_humidity;BME280_pressure;Samples;Min_cycle;Max_cycle;Signal;HPM_P1;HPM_P2
2021/12/10 00:00:15;;;;;;;18.00;11.75;;;;;;;;;;5006616;28;20691;-54
2021/12/10 00:02:45;;;;;;;17.67;11.25;;;;;;;;;;5006750;28;20049;-56
2021/12/10 00:05:11;;;;;;;18.00;11.90;;;;;;;;;;5006323;28;20436;-57
2021/12/10 00:07:36;;;;;;;15.82;11.85;;;;;;;;;;5006464;28;20029;-57
2021/12/10 00:10:04;;;;;;;17.83;10.97;;;;;;;;;;5006251;28;20470;-58
2021/12/10 00:12:37;;;;;;;16.38;11.25;;;;;;;;;;5006316;28;20033;-55
2021/12/10 00:15:03;;;;;;;16.05;11.18;;;;;;;;;;5006293;28;20056;-56
2021/12/10 00:17:28;;;;;;;17.17;11.60;;;;;;;;;;5006622;28;20495;-56
2021/12/10 00:19:56;;;;;;;16.65;10.95;;;;;;;;;;5006035;28;20135;-56
2021/12/10 00:22:21;;;;;;;15.15;10.57;;;;;;;;;;5006353;28;20600;-54
2021/12/10 00:24:47;;;;;;;16.58;11.23;;;;;;;;;;5006236;28;20053;-56
2021/12/10 00:27:13;;;;;;;16.95;11.23;;;;;;;;;;5006141;28;20036;-55
2021/12/10 00:29:40;;;;;;;17.38;10.70;;;;;;;;;;5006256;28;20029;-56
2021/12/10 00:32:16;;;;;;;16.10;11.07;;;;;;;;;;5005771;28;20030;-56
2021/12/10 00:34:42;;;;;;;17.00;10.45;;;;;;;;;;5006112;28;20116;-56
2021/12/10 00:37:08;;;;;;;16.10;10.77;;;;;;;;;;5006024;28;20030;-56
2021/12/10 00:39:41;;;;;;;16.92;11.02;;;;;;;;;;5006087;28;20021;-56
2021/12/10 00:42:08;;;;;;;15.48;9.88;;;;;;;;;;5005528;28;20032;-57
2021/12/10 00:44:33;;;;;;;14.52;10.05;;;;;;;;;;5005877;28;20522;-55
2021/12/10 00:46:58;;;;;;;15.80;10.20;;;;;;;;;;5005731;28;20030;-57
2021/12/10 00:49:23;;;;;;;13.50;9.73;;;;;;;;;;5005750;28;20269;-55
2021/12/10 00:51:48;;;;;;;15.63;10.77;;;;;;;;;;5005664;28;20030;-55
2021/12/10 00:54:15;;;;;;;14.95;10.13;;;;;;;;;;5003830;28;20041;-56
2021/12/10 00:56:41;;;;;;;14.40;9.90;;;;;;;;;;5005424;28;20026;-56
2021/12/10 00:59:07;;;;;;;15.25;9.90;;;;;;;;;;5005219;28;20033;-57
2021/12/10 01:01:32;;;;;;;14.00;9.75;;;;;;;;;;5005455;28;20502;-56
2021/12/10 01:03:59;;;;;;;15.10;10.10;;;;;;;;;;5005024;28;20083;-55
2021/12/10 01:06:26;;;;;;;14.52;9.85;;;;;;;;;;5005446;28;20392;-56
2021/12/10 01:08:52;;;;;;;15.77;10.18;;;;;;;;;;5005164;28;20022;-56
2021/12/10 01:11:21;;;;;;;14.25;9.93;;;;;;;;;;5005303;28;20033;-56
2021/12/10 01:13:48;;;;;;;13.32;9.18;;;;;;;;;;5004594;28;20593;-56
2021/12/10 01:26:57;;;;;;;12.48;9.57;;;;;;;;;;5004737;28;20037;-53
2021/12/10 01:29:25;;;;;;;12.65;8.95;;;;;;;;;;5004438;28;20034;-56
2021/12/10 01:31:50;;;;;;;13.50;9.38;;;;;;;;;;5004182;28;20026;-56
2021/12/10 01:34:15;;;;;;;12.60;9.30;;;;;;;;;;5004167;28;20022;-56
2021/12/10 01:36:40;;;;;;;12.45;8.23;;;;;;;;;;5003148;28;20595;-56
2021/12/10 01:39:07;;;;;;;13.07;8.80;;;;;;;;;;5004461;28;20022;-56
2021/12/10 01:41:36;;;;;;;12.45;8.13;;;;;;;;;;5004701;28;20101;-57
2021/12/10 01:44:12;;;;;;;12.65;8.73;;;;;;;;;;5004419;28;20016;-54
2021/12/10 01:46:39;;;;;;;11.95;8.43;;;;;;;;;;5004640;28;20118;-57
2021/12/10 01:49:04;;;;;;;12.20;8.68;;;;;;;;;;5004335;28;20025;-57
2021/12/10 01:51:31;;;;;;;13.90;8.77;;;;;;;;;;5004527;28;20112;-56
2021/12/10 01:53:56;;;;;;;13.95;8.73;;;;;;;;;;5003740;28;20448;-56
2021/12/10 01:56:23;;;;;;;12.35;8.23;;;;;;;;;;5004324;28;20026;-55
2021/12/10 01:58:49;;;;;;;11.95;8.18;;;;;;;;;;5004102;28;20384;-56
2021/12/10 02:01:18;;;;;;;12.50;8.85;;;;;;;;;;5004394;28;20077;-56
2021/12/10 02:03:44;;;;;;;13.02;8.52;;;;;;;;;;5002817;28;20389;-57
2021/12/10 02:06:09;;;;;;;11.85;8.02;;;;;;;;;;5004280;28;20570;-56
2021/12/10 02:08:35;;;;;;;11.70;8.18;;;;;;;;;;5004552;28;20036;-57
2021/12/10 02:11:00;;;;;;;11.27;7.88;;;;;;;;;;5004411;28;21283;-57
2021/12/10 02:13:25;;;;;;;12.05;8.50;;;;;;;;;;5003992;28;20488;-57
2021/12/10 02:15:51;;;;;;;11.73;7.95;;;;;;;;;;5004221;28;20040;-55
2021/12/10 02:18:16;;;;;;;14.32;8.07;;;;;;;;;;5003942;28;20022;-53
2021/12/10 02:20:49;;;;;;;11.65;7.97;;;;;;;;;;5004003;28;20483;-54
2021/12/10 02:23:15;;;;;;;11.50;8.02;;;;;;;;;;5003992;28;20018;-56
2021/12/10 02:25:40;;;;;;;12.90;8.80;;;;;;;;;;5003947;28;20381;-55
2021/12/10 02:28:06;;;;;;;11.52;7.88;;;;;;;;;;5004068;28;20017;-56
2021/12/10 02:30:31;;;;;;;11.52;7.72;;;;;;;;;;5004133;28;20547;-56
2021/12/10 02:32:56;;;;;;;11.50;8.02;;;;;;;;;;5004053;28;20547;-54
2021/12/10 02:35:22;;;;;;;12.38;7.75;;;;;;;;;;5003999;28;20515;-54
2021/12/10 02:37:47;;;;;;;12.27;7.83;;;;;;;;;;5008084;28;20022;-56
2021/12/10 02:40:13;;;;;;;11.48;7.85;;;;;;;;;;5007382;28;20269;-56
2021/12/10 02:42:38;;;;;;;11.63;7.85;;;;;;;;;;5007633;28;20026;-56
2021/12/10 02:45:05;;;;;;;10.73;7.80;;;;;;;;;;5006380;28;20018;-56
2021/12/10 02:47:30;;;;;;;11.88;7.63;;;;;;;;;;5007649;28;20045;-54
2021/12/10 02:49:56;;;;;;;11.20;7.57;;;;;;;;;;5007562;28;20467;-54
2021/12/10 02:52:23;;;;;;;11.30;7.63;;;;;;;;;;5007745;28;20107;-54
2021/12/10 02:54:49;;;;;;;11.63;7.30;;;;;;;;;;5007020;28;20312;-56
2021/12/10 02:57:14;;;;;;;11.23;7.73;;;;;;;;;;5007884;28;20022;-56
2021/12/10 02:59:40;;;;;;;10.20;7.45;;;;;;;;;;5007568;28;20033;-53
2021/12/10 03:02:06;;;;;;;10.52;7.28;;;;;;;;;;5007196;28;20026;-53
2021/12/10 03:04:32;;;;;;;11.20;7.32;;;;;;;;;;5007543;28;20660;-51
2021/12/10 03:06:58;;;;;;;11.45;7.00;;;;;;;;;;5007278;28;20037;-53
2021/12/10 03:09:24;;;;;;;10.40;6.82;;;;;;;;;;5007359;28;20026;-52
2021/12/10 03:11:49;;;;;;;9.40;6.82;;;;;;;;;;5007346;28;20048;-52
2021/12/10 03:14:19;;;;;;;8.88;6.80;;;;;;;;;;5006903;28;20054;-54
2021/12/10 03:16:45;;;;;;;9.70;6.78;;;;;;;;;;5007185;28;20021;-56
2021/12/10 03:19:10;;;;;;;10.15;7.38;;;;;;;;;;5006849;28;20060;-55
2021/12/10 03:21:37;;;;;;;10.77;7.00;;;;;;;;;;5007459;28;20048;-53
2021/12/10 03:24:03;;;;;;;10.10;6.63;;;;;;;;;;5006989;28;20281;-53
2021/12/10 03:26:28;;;;;;;10.07;6.75;;;;;;;;;;5007095;28;20022;-55
2021/12/10 03:28:53;;;;;;;9.57;6.82;;;;;;;;;;5006912;28;20064;-55
2021/12/10 03:31:19;;;;;;;9.20;6.73;;;;;;;;;;5007054;28;20033;-55
2021/12/10 03:33:44;;;;;;;10.43;6.90;;;;;;;;;;5006770;28;20288;-57
2021/12/10 03:36:10;;;;;;;9.80;6.32;;;;;;;;;;5006496;28;20025;-54
2021/12/10 03:38:35;;;;;;;9.23;6.57;;;;;;;;;;5001982;28;20588;-53
2021/12/10 03:41:00;;;;;;;9.48;6.60;;;;;;;;;;4996588;28;20042;-56
2021/12/10 03:43:26;;;;;;;8.63;6.10;;;;;;;;;;5006820;28;20095;-53
2021/12/10 03:45:51;;;;;;;11.98;7.22;;;;;;;;;;5006359;28;20492;-54
2021/12/10 03:48:18;;;;;;;8.95;6.45;;;;;;;;;;5006701;28;20101;-55
2021/12/10 03:50:43;;;;;;;9.85;6.88;;;;;;;;;;5007004;28;20010;-56
2021/12/10 03:53:09;;;;;;;9.48;6.20;;;;;;;;;;5006573;28;20057;-55
2021/12/10 03:55:34;;;;;;;10.45;6.85;;;;;;;;;;5006519;28;20048;-55
2021/12/10 03:57:59;;;;;;;9.68;6.43;;;;;;;;;;5006209;28;20112;-54
2021/12/10 04:00:25;;;;;;;10.60;6.50;;;;;;;;;;5006670;28;20029;-56
2021/12/10 04:02:51;;;;;;;10.32;6.72;;;;;;;;;;5006438;28;20276;-56
2021/12/10 04:05:16;;;;;;;8.53;5.60;;;;;;;;;;5006345;28;20488;-53
2021/12/10 04:07:41;;;;;;;8.98;6.60;;;;;;;;;;5006100;28;20442;-53
2021/12/10 04:10:07;;;;;;;9.13;6.13;;;;;;;;;;5006162;28;20026;-54
2021/12/10 04:12:32;;;;;;;8.82;5.93;;;;;;;;;;5004927;28;20033;-53
2021/12/10 04:14:58;;;;;;;8.47;6.10;;;;;;;;;;5005836;28;20078;-54
2021/12/10 04:17:23;;;;;;;11.03;6.57;;;;;;;;;;5006069;28;20300;-55
2021/12/10 04:19:50;;;;;;;8.50;5.90;;;;;;;;;;5006086;28;20627;-52
2021/12/10 04:22:16;;;;;;;8.48;5.63;;;;;;;;;;5009324;28;20026;-57
2021/12/10 04:24:41;;;;;;;8.30;5.90;;;;;;;;;;5025926;28;20032;-56
2021/12/10 04:27:07;;;;;;;7.67;5.90;;;;;;;;;;5025694;28;20393;-56
2021/12/10 04:29:32;;;;;;;8.20;5.40;;;;;;;;;;5025545;28;20264;-56
2021/12/10 04:31:58;;;;;;;8.98;5.75;;;;;;;;;;5025579;28;20024;-54
2021/12/10 04:34:23;;;;;;;10.48;6.03;;;;;;;;;;5021361;28;20041;-54
2021/12/10 04:36:49;;;;;;;8.85;5.82;;;;;;;;;;5005775;28;20026;-53
2021/12/10 04:39:14;;;;;;;9.45;6.10;;;;;;;;;;5005575;28;20062;-55
2021/12/10 04:41:39;;;;;;;8.57;6.00;;;;;;;;;;5005682;28;20131;-56
2021/12/10 04:44:05;;;;;;;9.00;5.90;;;;;;;;;;5005570;28;20277;-57
2021/12/10 04:46:30;;;;;;;9.63;6.30;;;;;;;;;;5005807;28;20021;-56
2021/12/10 04:48:57;;;;;;;7.82;5.72;;;;;;;;;;5005876;28;20095;-56
2021/12/10 04:51:23;;;;;;;9.52;6.05;;;;;;;;;;5005750;28;20105;-57
2021/12/10 04:53:49;;;;;;;8.98;6.15;;;;;;;;;;5005306;28;20112;-56
2021/12/10 04:56:14;;;;;;;7.93;5.57;;;;;;;;;;5005247;28;20026;-56
2021/12/10 04:58:39;;;;;;;7.40;4.95;;;;;;;;;;5004729;28;20037;-57
2021/12/10 05:01:05;;;;;;;7.40;5.45;;;;;;;;;;5005086;28;20424;-56
2021/12/10 05:03:30;;;;;;;8.27;5.60;;;;;;;;;;5005290;28;20022;-56
2021/12/10 05:06:00;;;;;;;8.48;5.45;;;;;;;;;;5005310;28;20022;-56
2021/12/10 05:08:26;;;;;;;8.10;5.82;;;;;;;;;;5005486;28;20109;-56
2021/12/10 05:10:51;;;;;;;9.68;5.80;;;;;;;;;;5005665;28;20148;-55
2021/12/10 05:13:16;;;;;;;9.27;6.00;;;;;;;;;;5005343;28;20526;-54
2021/12/10 05:15:43;;;;;;;7.33;5.20;;;;;;;;;;5005129;28;20026;-55
2021/12/10 05:18:12;;;;;;;7.53;5.18;;;;;;;;;;5004642;28;20272;-53
2021/12/10 05:20:37;;;;;;;8.32;5.07;;;;;;;;;;5005057;28;20041;-53
2021/12/10 05:23:02;;;;;;;7.63;5.20;;;;;;;;;;5005063;28;20026;-56
2021/12/10 05:25:28;;;;;;;8.60;5.45;;;;;;;;;;5005209;28;20436;-57
2021/12/10 05:27:53;;;;;;;8.80;5.40;;;;;;;;;;5004925;28;20112;-57
2021/12/10 05:30:19;;;;;;;9.33;5.60;;;;;;;;;;5004750;28;20037;-56
2021/12/10 05:32:44;;;;;;;7.38;5.22;;;;;;;;;;5004914;28;20341;-56
2021/12/10 05:35:10;;;;;;;6.83;5.17;;;;;;;;;;5005151;28;20072;-53
2021/12/10 05:37:35;;;;;;;7.43;5.10;;;;;;;;;;5005398;28;20276;-56
2021/12/10 05:40:00;;;;;;;6.40;4.73;;;;;;;;;;5005128;28;20096;-55
2021/12/10 05:42:26;;;;;;;6.90;5.22;;;;;;;;;;5005191;28;20280;-53
2021/12/10 05:44:54;;;;;;;7.88;4.55;;;;;;;;;;5005051;28;20083;-57
2021/12/10 05:47:19;;;;;;;6.43;4.90;;;;;;;;;;5005152;28;21576;-56
2021/12/10 05:49:44;;;;;;;7.23;4.80;;;;;;;;;;5000936;28;20057;-54
2021/12/10 05:52:09;;;;;;;7.15;4.40;;;;;;;;;;5002882;28;20788;-55
2021/12/10 05:54:35;;;;;;;6.38;4.32;;;;;;;;;;5004454;28;20061;-54
2021/12/10 05:57:00;;;;;;;6.93;4.60;;;;;;;;;;5004596;28;20504;-57
2021/12/10 05:59:25;;;;;;;6.63;4.57;;;;;;;;;;5003398;28;20026;-56
2021/12/10 06:01:50;;;;;;;7.73;4.50;;;;;;;;;;5004917;28;20461;-58
2021/12/10 06:04:22;;;;;;;7.10;4.37;;;;;;;;;;5004566;28;20807;-59
2021/12/10 06:06:47;;;;;;;6.55;4.45;;;;;;;;;;5004744;28;20277;-60
2021/12/10 06:09:12;;;;;;;6.00;4.23;;;;;;;;;;5004454;28;20058;-55
2021/12/10 06:11:37;;;;;;;5.73;4.47;;;;;;;;;;5008630;28;20268;-55
2021/12/10 06:14:03;;;;;;;5.53;4.07;;;;;;;;;;5008354;28;20407;-57
2021/12/10 06:16:28;;;;;;;6.10;4.18;;;;;;;;;;5008363;28;20503;-56
2021/12/10 06:18:53;;;;;;;8.80;4.40;;;;;;;;;;5008213;28;20053;-54
2021/12/10 06:21:19;;;;;;;6.72;4.07;;;;;;;;;;5008573;28;20161;-56
2021/12/10 06:23:44;;;;;;;7.25;4.40;;;;;;;;;;5007150;28;20018;-55
2021/12/10 06:26:10;;;;;;;6.85;4.20;;;;;;;;;;5007751;28;20025;-55
2021/12/10 06:28:35;;;;;;;5.57;3.72;;;;;;;;;;5007948;28;20092;-55
2021/12/10 06:31:00;;;;;;;6.05;4.30;;;;;;;;;;5008605;28;20029;-56
2021/12/10 06:33:28;;;;;;;5.77;3.70;;;;;;;;;;5008404;28;20883;-55
2021/12/10 06:35:53;;;;;;;6.10;4.00;;;;;;;;;;5008257;28;20327;-53
2021/12/10 06:38:18;;;;;;;5.63;3.85;;;;;;;;;;5007912;28;20064;-57
2021/12/10 06:40:44;;;;;;;5.53;3.55;;;;;;;;;;5004498;28;20031;-56
2021/12/10 06:43:09;;;;;;;5.50;3.63;;;;;;;;;;4997063;28;20068;-59
2021/12/10 06:45:35;;;;;;;6.00;4.00;;;;;;;;;;5005867;28;20018;-56
2021/12/10 06:48:01;;;;;;;5.90;3.85;;;;;;;;;;5006480;28;20527;-57
2021/12/10 06:50:27;;;;;;;5.68;3.38;;;;;;;;;;4994764;28;20389;-56
2021/12/10 06:52:53;;;;;;;5.70;3.40;;;;;;;;;;4997395;28;20846;-53
2021/12/10 06:55:18;;;;;;;5.10;3.50;;;;;;;;;;5007554;28;20052;-60
2021/12/10 06:57:44;;;;;;;5.10;3.28;;;;;;;;;;5007848;28;20025;-58
2021/12/10 07:00:11;;;;;;;5.18;4.15;;;;;;;;;;4994241;28;20022;-57
2021/12/10 07:02:36;;;;;;;5.90;3.75;;;;;;;;;;5007209;28;20022;-55
2021/12/10 07:05:01;;;;;;;5.07;3.27;;;;;;;;;;5007599;28;20037;-56
2021/12/10 07:07:26;;;;;;;5.82;3.60;;;;;;;;;;5003686;28;20256;-56
2021/12/10 07:09:52;;;;;;;5.27;3.90;;;;;;;;;;5006752;28;20597;-53
2021/12/10 07:12:18;;;;;;;5.65;3.70;;;;;;;;;;5007221;28;20269;-54
2021/12/10 07:14:44;;;;;;;4.90;3.33;;;;;;;;;;5005916;28;20061;-54
2021/12/10 07:17:09;;;;;;;5.37;3.83;;;;;;;;;;5007235;28;20056;-55
2021/12/10 07:19:34;;;;;;;6.28;3.78;;;;;;;;;;5006802;28;20047;-55
2021/12/10 07:22:00;;;;;;;5.18;3.50;;;;;;;;;;5006565;28;20053;-55
2021/12/10 07:24:25;;;;;;;5.10;3.67;;;;;;;;;;5006616;28;20053;-55
2021/12/10 07:26:50;;;;;;;6.30;3.33;;;;;;;;;;5002060;28;20030;-51
2021/12/10 07:29:16;;;;;;;4.30;3.20;;;;;;;;;;4987750;28;20037;-55
2021/12/10 07:31:42;;;;;;;4.63;3.40;;;;;;;;;;5000310;28;20009;-54
2021/12/10 07:34:07;;;;;;;5.20;3.25;;;;;;;;;;5006497;28;20536;-55
2021/12/10 07:36:32;;;;;;;4.97;3.45;;;;;;;;;;5007056;28;20021;-56
2021/12/10 07:38:58;;;;;;;4.13;2.90;;;;;;;;;;5006447;28;20400;-55
2021/12/10 07:41:23;;;;;;;5.30;3.50;;;;;;;;;;5006906;28;20554;-56
2021/12/10 07:43:48;;;;;;;5.15;3.20;;;;;;;;;;5006640;28;20261;-55
2021/12/10 07:46:13;;;;;;;4.47;3.45;;;;;;;;;;4995988;28;20084;-56
2021/12/10 07:48:39;;;;;;;3.83;2.90;;;;;;;;;;5004955;28;20022;-56
2021/12/10 07:51:06;;;;;;;5.68;3.33;;;;;;;;;;5006126;28;20488;-56
2021/12/10 07:53:32;;;;;;;5.15;3.50;;;;;;;;;;5005862;28;20038;-58
2021/12/10 07:56:00;;;;;;;4.68;3.45;;;;;;;;;;4991212;28;20033;-56
2021/12/10 07:58:25;;;;;;;6.03;3.22;;;;;;;;;;5005210;28;20108;-56
2021/12/10 08:00:50;;;;;;;4.43;3.40;;;;;;;;;;5006080;28;20113;-56
2021/12/10 08:03:16;;;;;;;4.03;2.90;;;;;;;;;;5006263;28;20331;-55
2021/12/10 08:05:41;;;;;;;4.70;2.90;;;;;;;;;;5006496;28;20342;-55
2021/12/10 08:08:06;;;;;;;4.72;3.15;;;;;;;;;;5006066;28;20025;-56
2021/12/10 08:10:32;;;;;;;4.82;3.25;;;;;;;;;;5006518;28;20052;-56
2021/12/10 08:12:58;;;;;;;5.25;3.20;;;;;;;;;;5007043;28;20820;-54
2021/12/10 08:15:23;;;;;;;3.72;2.72;;;;;;;;;;5006635;28;20121;-57
2021/12/10 08:17:48;;;;;;;5.05;3.60;;;;;;;;;;5007676;28;20033;-55
2021/12/10 08:20:15;;;;;;;4.77;2.80;;;;;;;;;;5006373;28;20024;-54
2021/12/10 08:22:40;;;;;;;4.30;3.45;;;;;;;;;;5006796;28;20064;-56
2021/12/10 08:25:05;;;;;;;5.10;3.47;;;;;;;;;;5006244;28;20057;-55
2021/12/10 08:27:31;;;;;;;4.63;3.50;;;;;;;;;;4997901;28;20027;-53
2021/12/10 08:30:02;;;;;;;5.20;3.10;;;;;;;;;;4986446;28;20538;-54
2021/12/10 08:32:28;;;;;;;4.82;3.30;;;;;;;;;;4987482;28;20257;-52
2021/12/10 08:34:53;;;;;;;6.03;3.22;;;;;;;;;;4985186;28;20421;-53
2021/12/10 08:37:18;;;;;;;4.53;2.77;;;;;;;;;;4995662;28;20033;-55
2021/12/10 08:39:43;;;;;;;5.55;3.60;;;;;;;;;;5005272;28;20026;-54
2021/12/10 08:42:09;;;;;;;5.57;3.40;;;;;;;;;;5005853;28;20041;-55
2021/12/10 08:44:35;;;;;;;4.50;3.22;;;;;;;;;;5024212;28;20037;-54
2021/12/10 08:47:00;;;;;;;4.72;3.28;;;;;;;;;;5025246;28;20037;-54
2021/12/10 08:49:27;;;;;;;5.60;3.60;;;;;;;;;;5025497;28;20562;-56
2021/12/10 08:51:53;;;;;;;4.53;3.20;;;;;;;;;;5025293;28;20029;-56
2021/12/10 08:54:19;;;;;;;4.65;3.17;;;;;;;;;;5022870;28;20057;-55
2021/12/10 08:56:44;;;;;;;4.97;3.30;;;;;;;;;;5005589;28;20038;-54
2021/12/10 08:59:09;;;;;;;7.03;3.47;;;;;;;;;;5005308;28;20024;-54
2021/12/10 09:01:36;;;;;;;5.00;3.30;;;;;;;;;;5005497;28;20044;-60
2021/12/10 09:04:02;;;;;;;5.47;3.50;;;;;;;;;;5004194;28;20057;-52
2021/12/10 09:06:28;;;;;;;6.25;4.05;;;;;;;;;;5024252;28;20103;-55
2021/12/10 09:08:54;;;;;;;4.40;3.28;;;;;;;;;;5024352;28;20757;-55
2021/12/10 09:11:19;;;;;;;5.45;3.60;;;;;;;;;;5024448;28;20025;-55
2021/12/10 09:13:45;;;;;;;5.10;3.17;;;;;;;;;;5025164;28;20040;-55
2021/12/10 09:16:17;;;;;;;5.93;3.43;;;;;;;;;;5007911;28;20448;-54
2021/12/10 09:18:42;;;;;;;4.72;3.33;;;;;;;;;;5004121;28;20264;-55
2021/12/10 09:21:08;;;;;;;5.17;3.60;;;;;;;;;;5004929;28;20400;-56
2021/12/10 09:23:33;;;;;;;4.63;3.70;;;;;;;;;;5004891;28;20269;-53
2021/12/10 09:25:59;;;;;;;4.87;3.70;;;;;;;;;;5005118;28;20080;-54
2021/12/10 09:28:24;;;;;;;5.90;4.20;;;;;;;;;;4997993;28;20270;-55
2021/12/10 09:30:50;;;;;;;5.95;4.20;;;;;;;;;;5004577;28;20793;-55
2021/12/10 09:33:16;;;;;;;7.10;4.20;;;;;;;;;;5004722;28;20029;-55
2021/12/10 09:35:41;;;;;;;7.80;4.57;;;;;;;;;;5004644;28;20160;-56
2021/12/10 09:38:06;;;;;;;5.30;3.80;;;;;;;;;;5004882;28;20032;-55
2021/12/10 09:40:34;;;;;;;5.27;3.97;;;;;;;;;;5004586;28;20269;-55
2021/12/10 09:42:59;;;;;;;5.22;3.75;;;;;;;;;;5004485;28;20335;-55
2021/12/10 09:45:25;;;;;;;6.07;4.50;;;;;;;;;;5004274;28;20026;-55
2021/12/10 09:47:50;;;;;;;6.68;4.00;;;;;;;;;;5004789;28;20029;-55
2021/12/10 09:50:16;;;;;;;6.07;4.17;;;;;;;;;;5004693;28;20451;-54
2021/12/10 09:52:41;;;;;;;6.10;4.35;;;;;;;;;;5004263;28;20276;-55
2021/12/10 09:55:08;;;;;;;6.95;4.55;;;;;;;;;;5003256;28;20339;-54
2021/12/10 09:57:33;;;;;;;6.15;4.10;;;;;;;;;;5003525;28;20088;-53
2021/12/10 09:59:59;;;;;;;8.60;5.13;;;;;;;;;;5003681;28;20033;-52
2021/12/10 10:02:24;;;;;;;7.15;5.05;;;;;;;;;;5003466;28;20026;-55
2021/12/10 10:04:50;;;;;;;7.33;5.13;;;;;;;;;;4997569;28;20099;-53
2021/12/10 10:07:20;;;;;;;7.22;5.20;;;;;;;;;;5003349;28;20269;-53
2021/12/10 10:09:51;;;;;;;6.88;4.88;;;;;;;;;;5003628;28;20417;-56
2021/12/10 10:12:19;;;;;;;7.75;4.80;;;;;;;;;;5003316;28;20040;-55
2021/12/10 10:14:44;;;;;;;8.90;5.55;;;;;;;;;;5003508;28;20467;-53
2021/12/10 10:17:10;;;;;;;7.95;4.93;;;;;;;;;;5003400;28;20033;-54
2021/12/10 10:19:35;;;;;;;10.52;6.43;;;;;;;;;;5003312;28;20029;-55
2021/12/10 10:22:01;;;;;;;15.45;6.28;;;;;;;;;;5003738;28;20696;-53
2021/12/10 10:24:27;;;;;;;10.23;5.53;;;;;;;;;;5003309;28;20048;-53
2021/12/10 10:27:10;;;;;;;9.73;5.85;;;;;;;;;;5003574;28;20551;-52
2021/12/10 10:29:37;;;;;;;11.07;5.72;;;;;;;;;;5003537;28;20041;-55
2021/12/10 10:32:09;;;;;;;9.23;5.80;;;;;;;;;;5003310;28;20026;-57
2021/12/10 10:34:35;;;;;;;10.18;5.63;;;;;;;;;;5003061;28;20125;-56
2021/12/10 10:37:00;;;;;;;8.18;5.20;;;;;;;;;;5003190;28;20109;-57
2021/12/10 10:39:26;;;;;;;8.82;5.05;;;;;;;;;;5003661;28;20030;-54
2021/12/10 10:41:53;;;;;;;9.23;5.35;;;;;;;;;;5003617;28;20415;-56
2021/12/10 10:44:18;;;;;;;27.10;16.83;;;;;;;;;;5003347;28;20108;-52
2021/12/10 10:46:44;;;;;;;18.70;11.32;;;;;;;;;;5003500;28;20104;-54
2021/12/10 10:49:10;;;;;;;14.50;7.90;;;;;;;;;;5002991;28;20032;-56
2021/12/10 10:51:39;;;;;;;13.33;8.00;;;;;;;;;;5003364;28;20727;-53
2021/12/10 10:54:05;;;;;;;12.25;6.97;;;;;;;;;;5003001;28;20806;-56
2021/12/10 10:56:35;;;;;;;12.68;7.32;;;;;;;;;;5003265;28;20034;-55
2021/12/10 10:59:02;;;;;;;11.07;7.05;;;;;;;;;;5006732;28;20038;-55
2021/12/10 11:01:35;;;;;;;12.13;6.78;;;;;;;;;;5006759;28;20423;-57
2021/12/10 11:04:03;;;;;;;11.70;6.82;;;;;;;;;;5006887;28;20032;-56
2021/12/10 11:06:33;;;;;;;13.07;7.00;;;;;;;;;;5006311;28;20560;-56
2021/12/10 11:08:58;;;;;;;;;;;;;;;;;;5006926;28;20121;-56
2021/12/10 11:11:24;;;;;;;11.63;7.10;;;;;;;;;;5006811;28;20411;-56
2021/12/10 11:13:51;;;;;;;10.88;6.85;;;;;;;;;;5006263;28;20045;-54
2021/12/10 11:16:19;;;;;;;12.85;7.38;;;;;;;;;;5006424;28;20041;-57
2021/12/10 11:18:45;;;;;;;11.85;7.63;;;;;;;;;;5006744;28;20040;-56
2021/12/10 11:21:10;;;;;;;11.83;7.40;;;;;;;;;;5006531;28;20030;-55
2021/12/10 11:23:38;;;;;;;10.37;6.90;;;;;;;;;;5006190;28;20335;-57
2021/12/10 11:26:03;;;;;;;11.85;6.85;;;;;;;;;;5006356;28;20276;-54
2021/12/10 11:28:30;;;;;;;9.77;6.57;;;;;;;;;;5006038;28;20105;-57
2021/12/10 11:31:02;;;;;;;10.88;6.75;;;;;;;;;;5006605;28;20273;-57
2021/12/10 11:33:28;;;;;;;10.25;6.28;;;;;;;;;;5002344;28;20117;-55
2021/12/10 11:35:54;;;;;;;10.10;6.67;;;;;;;;;;4999819;28;20531;-55
2021/12/10 11:38:25;;;;;;;10.60;6.57;;;;;;;;;;5005791;28;20979;-54
2021/12/10 11:40:53;;;;;;;10.90;6.70;;;;;;;;;;5006322;28;20071;-56
2021/12/10 11:45:50;;;;;;;11.73;6.90;;;;;;;;;;4999921;28;20104;-55
2021/12/10 11:48:25;;;;;;;9.13;6.47;;;;;;;;;;5003021;28;20041;-55
2021/12/10 11:51:05;;;;;;;10.13;6.55;;;;;;;;;;5006882;28;20077;-56
2021/12/10 11:53:34;;;;;;;12.23;7.40;;;;;;;;;;5006380;28;20073;-52
2021/12/10 11:56:10;;;;;;;10.98;7.43;;;;;;;;;;5006640;28;20116;-53
2021/12/10 11:58:36;;;;;;;11.15;7.10;;;;;;;;;;5006567;28;20029;-56
2021/12/10 12:01:01;;;;;;;9.80;6.47;;;;;;;;;;5006956;28;20597;-55
2021/12/10 12:03:30;;;;;;;13.33;7.63;;;;;;;;;;5006615;28;20897;-55
2021/12/10 12:05:55;;;;;;;11.68;7.55;;;;;;;;;;5006445;28;20268;-55
2021/12/10 12:08:21;;;;;;;10.02;6.72;;;;;;;;;;5005990;28;20538;-55
2021/12/10 12:10:47;;;;;;;11.20;6.97;;;;;;;;;;5006666;28;20040;-54
2021/12/10 12:15:48;;;;;;;10.05;6.60;;;;;;;;;;5006290;28;20515;-56
2021/12/10 12:18:14;;;;;;;11.32;8.40;;;;;;;;;;5006681;28;20034;-55
2021/12/10 12:20:52;;;;;;;9.63;6.15;;;;;;;;;;5006337;28;20037;-55
2021/12/10 12:26:04;;;;;;;9.57;6.90;;;;;;;;;;5006581;28;20045;-58
2021/12/10 12:28:29;;;;;;;10.55;6.72;;;;;;;;;;5005961;28;20535;-57
2021/12/10 12:30:59;;;;;;;11.93;7.45;;;;;;;;;;5005951;28;20064;-55
2021/12/10 12:33:25;;;;;;;9.82;6.75;;;;;;;;;;5005859;28;20029;-55
2021/12/10 12:35:51;;;;;;;8.57;6.32;;;;;;;;;;5005827;28;20045;-55
2021/12/10 12:38:37;;;;;;;9.68;6.63;;;;;;;;;;4998864;28;20033;-56
2021/12/10 12:41:04;;;;;;;9.90;6.47;;;;;;;;;;5003057;28;20041;-55
2021/12/10 12:43:29;;;;;;;10.48;7.00;;;;;;;;;;5005782;28;20084;-55
2021/12/10 12:46:01;;;;;;;11.43;6.90;;;;;;;;;;5005730;28;20440;-56
2021/12/10 12:48:27;;;;;;;8.80;6.55;;;;;;;;;;5005429;28;20777;-53
2021/12/10 12:50:55;;;;;;;12.20;7.50;;;;;;;;;;5005583;28;20588;-54
2021/12/10 12:53:21;;;;;;;10.38;7.07;;;;;;;;;;5005195;28;20046;-55
2021/12/10 12:55:51;;;;;;;12.35;7.50;;;;;;;;;;5004979;28;20048;-57
2021/12/10 12:58:35;;;;;;;10.60;7.05;;;;;;;;;;5005391;28;20057;-57
2021/12/10 13:01:04;;;;;;;11.07;7.65;;;;;;;;;;4991069;28;20095;-56
2021/12/10 13:03:30;;;;;;;10.75;6.68;;;;;;;;;;5003342;28;20247;-56
2021/12/10 13:05:56;;;;;;;10.77;7.25;;;;;;;;;;4998000;28;20539;-56
2021/12/10 13:08:23;;;;;;;10.85;6.40;;;;;;;;;;5003983;28;20022;-53
2021/12/10 13:11:01;;;;;;;10.32;7.03;;;;;;;;;;5003914;28;20385;-55
2021/12/10 13:13:35;;;;;;;11.98;7.72;;;;;;;;;;5005060;28;20017;-56
2021/12/10 13:16:00;;;;;;;10.60;7.60;;;;;;;;;;5004887;28;20033;-56
2021/12/10 13:18:25;;;;;;;10.07;6.88;;;;;;;;;;5004919;28;20403;-56
2021/12/10 13:20:53;;;;;;;9.70;6.87;;;;;;;;;;5004313;28;20401;-56
2021/12/10 13:23:26;;;;;;;9.95;6.68;;;;;;;;;;5004876;28;20261;-54
2021/12/10 13:25:54;;;;;;;9.85;7.00;;;;;;;;;;5004797;28;20100;-54
2021/12/10 13:28:19;;;;;;;10.82;7.28;;;;;;;;;;5004987;28;20180;-56
2021/12/10 13:30:47;;;;;;;11.27;7.40;;;;;;;;;;5004768;28;20531;-55
2021/12/10 13:33:13;;;;;;;9.20;6.43;;;;;;;;;;5004682;28;20021;-55
2021/12/10 13:35:38;;;;;;;9.98;7.25;;;;;;;;;;5004487;28;20041;-54
2021/12/10 13:38:06;;;;;;;10.03;6.60;;;;;;;;;;5004894;28;20018;-54
2021/12/10 13:40:32;;;;;;;9.30;6.20;;;;;;;;;;5000721;28;20364;-55
2021/12/10 13:43:03;;;;;;;11.23;7.28;;;;;;;;;;5004569;28;20468;-54
2021/12/10 13:45:29;;;;;;;9.57;6.68;;;;;;;;;;5004733;28;20030;-55
2021/12/10 13:48:02;;;;;;;10.55;6.72;;;;;;;;;;5003378;28;20825;-54
2021/12/10 13:50:27;;;;;;;9.07;6.50;;;;;;;;;;5004875;28;20022;-55
2021/12/10 13:53:03;;;;;;;10.38;6.80;;;;;;;;;;5003838;28;20057;-58
2021/12/10 13:55:36;;;;;;;10.15;6.32;;;;;;;;;;5004394;28;20045;-56
2021/12/10 13:58:19;;;;;;;10.68;7.28;;;;;;;;;;5004544;28;20022;-56
2021/12/10 14:00:55;;;;;;;9.38;6.28;;;;;;;;;;5004455;28;20419;-54
2021/12/10 14:03:53;;;;;;;9.95;7.28;;;;;;;;;;4989324;28;20048;-55
2021/12/10 14:06:21;;;;;;;10.30;6.30;;;;;;;;;;4981666;28;20049;-56
2021/12/10 14:09:05;;;;;;;9.70;7.13;;;;;;;;;;5004583;28;20121;-56
2021/12/10 14:11:50;;;;;;;10.07;6.75;;;;;;;;;;5004828;28;20407;-56
2021/12/10 14:14:15;;;;;;;10.57;6.65;;;;;;;;;;5004622;28;20424;-55
2021/12/10 14:16:47;;;;;;;10.10;7.10;;;;;;;;;;5004626;28;20033;-56
2021/12/10 14:19:31;;;;;;;10.00;6.70;;;;;;;;;;5004167;28;20025;-54
2021/12/10 14:21:57;;;;;;;9.65;6.85;;;;;;;;;;5004465;28;20108;-54
2021/12/10 14:24:39;;;;;;;8.10;6.38;;;;;;;;;;5004078;28;20121;-54
2021/12/10 14:27:06;;;;;;;9.90;6.95;;;;;;;;;;5003989;28;20022;-54
2021/12/10 14:29:31;;;;;;;9.82;7.20;;;;;;;;;;5003955;28;20022;-55
2021/12/10 14:31:56;;;;;;;11.45;6.78;;;;;;;;;;5006705;28;20029;-53
2021/12/10 14:34:22;;;;;;;9.57;6.40;;;;;;;;;;5006628;28;20057;-54
2021/12/10 14:37:00;;;;;;;10.07;7.18;;;;;;;;;;5007721;28;20276;-54
2021/12/10 14:39:25;;;;;;;11.15;6.95;;;;;;;;;;5007882;28;20026;-54
2021/12/10 14:41:53;;;;;;;10.48;7.30;;;;;;;;;;5006692;28;20029;-52
2021/12/10 14:44:25;;;;;;;10.15;8.00;;;;;;;;;;5007608;28;20044;-53
2021/12/10 14:46:50;;;;;;;9.48;6.47;;;;;;;;;;5007825;28;20467;-55
2021/12/10 14:49:32;;;;;;;11.00;6.85;;;;;;;;;;5007717;28;20034;-55
2021/12/10 14:52:12;;;;;;;9.85;6.65;;;;;;;;;;5007941;28;20177;-56